首页
METAR-TAF:

METAR-TAF

机场 :

烏日霍羅德國際機場

乌日霍罗德, 乌克兰

纬度: 48-38-05N, 经度: 022-15-53E, 海拔: 117米

当前天气观测

该预报发布于11小时和40分钟前的16:00 UTC
风速2节,风向多变
温度 4°C
湿度 75%
气压 1017 hPa
能见度10公里或以上
多云层高于1400英尺

METAR: UKLU 111600Z VRB01MPS 9999 BKN014 04/M00 Q1017 R10/090070 NOSIG

时间: 05:40 (03:40 UTC)

预报

该预报发布于13小时和38分钟前的14:02 UTC
预报有效从11日的 15点(UTC)到 11日的 24点(UTC)
风速2节,风向多变
能见度10公里或以上
多云层高于2000英尺
短暂存在
在之间 -R和A点(UTC)
阴天层高于1000英尺

TAF: UKLU 111402Z 1115/1124 VRB01MPS 9999 BKN020 TX03/1115Z TN01/1124Z TEMPO -RA OVC010

超过4000个机场的气象观测和天气预报(METAR&TAF报告)。

可查询的气象台以黄色和红色小点在地图上表示。

将鼠标移到小点上方,可查看气象台名称。

然后点击查看天气观测和预报。

如需切换地图:点击带黑十字的绿色按钮放大地图;点击带横线的绿色按钮缩小地图;或者点击绿色箭头查看邻近地区的地图。


METAR-TAF: